sensor_id;sensor_type;location;lat;lon;timestamp;pressure;altitude;pressure_sealevel;temperature;humidity
4814;BME280;15375;48.540;9.268;2022-12-15T00:02:00;96051.88;;;-1.34;100.00
4814;BME280;15375;48.540;9.268;2022-12-15T00:04:44;96057.22;;;-1.30;100.00
4814;BME280;15375;48.540;9.268;2022-12-15T00:07:28;96041.53;;;-1.35;100.00
4814;BME280;15375;48.540;9.268;2022-12-15T00:10:12;96030.00;;;-1.43;100.00
4814;BME280;15375;48.540;9.268;2022-12-15T00:12:56;96047.63;;;-1.38;100.00
4814;BME280;15375;48.540;9.268;2022-12-15T00:15:40;96065.59;;;-1.39;100.00
4814;BME280;15375;48.540;9.268;2022-12-15T00:18:24;96049.47;;;-1.46;100.00
4814;BME280;15375;48.540;9.268;2022-12-15T00:21:08;96060.16;;;-1.46;100.00
4814;BME280;15375;48.540;9.268;2022-12-15T00:23:52;96068.22;;;-1.42;100.00
4814;BME280;15375;48.540;9.268;2022-12-15T00:26:36;96048.63;;;-1.57;100.00
4814;BME280;15375;48.540;9.268;2022-12-15T00:29:20;96069.28;;;-1.50;100.00
4814;BME280;15375;48.540;9.268;2022-12-15T00:32:04;96063.59;;;-1.49;100.00
4814;BME280;15375;48.540;9.268;2022-12-15T00:34:48;96061.72;;;-1.45;100.00
4814;BME280;15375;48.540;9.268;2022-12-15T00:37:32;96075.56;;;-1.32;100.00
4814;BME280;15375;48.540;9.268;2022-12-15T00:40:16;96052.56;;;-1.44;100.00
4814;BME280;15375;48.540;9.268;2022-12-15T00:42:41;96071.34;;;-1.33;100.00
4814;BME280;15375;48.540;9.268;2022-12-15T00:45:07;96070.22;;;-1.32;100.00
4814;BME280;15375;48.540;9.268;2022-12-15T00:47:32;96073.66;;;-1.28;100.00
4814;BME280;15375;48.540;9.268;2022-12-15T00:49:58;96049.84;;;-1.47;100.00
4814;BME280;15375;48.540;9.268;2022-12-15T00:52:42;96056.75;;;-1.46;100.00
4814;BME280;15375;48.540;9.268;2022-12-15T00:55:27;96099.72;;;-1.18;100.00
4814;BME280;15375;48.540;9.268;2022-12-15T00:58:10;96095.88;;;-1.20;100.00
4814;BME280;15375;48.540;9.268;2022-12-15T01:00:54;96083.19;;;-1.34;100.00
4814;BME280;15375;48.540;9.268;2022-12-15T01:03:39;96089.72;;;-1.28;100.00
4814;BME280;15375;48.540;9.268;2022-12-15T01:06:23;96101.22;;;-1.24;100.00
4814;BME280;15375;48.540;9.268;2022-12-15T01:09:13;96080.47;;;-1.41;100.00
4814;BME280;15375;48.540;9.268;2022-12-15T01:11:57;96102.69;;;-1.30;100.00
4814;BME280;15375;48.540;9.268;2022-12-15T01:14:41;96115.03;;;-1.18;100.00
4814;BME280;15375;48.540;9.268;2022-12-15T01:17:25;96093.50;;;-1.36;100.00
4814;BME280;15375;48.540;9.268;2022-12-15T01:20:10;96113.38;;;-1.34;100.00
4814;BME280;15375;48.540;9.268;2022-12-15T01:22:46;96114.81;;;-1.43;100.00
4814;BME280;15375;48.540;9.268;2022-12-15T01:25:12;96089.50;;;-1.56;100.00
4814;BME280;15375;48.540;9.268;2022-12-15T01:27:38;96089.16;;;-1.51;100.00
4814;BME280;15375;48.540;9.268;2022-12-15T01:30:05;96080.28;;;-1.62;100.00
4814;BME280;15375;48.540;9.268;2022-12-15T01:32:31;96080.22;;;-1.66;100.00
4814;BME280;15375;48.540;9.268;2022-12-15T01:34:56;96125.50;;;-1.43;100.00
4814;BME280;15375;48.540;9.268;2022-12-15T01:37:22;96095.47;;;-1.70;100.00
4814;BME280;15375;48.540;9.268;2022-12-15T01:39:47;96063.19;;;-1.95;100.00
4814;BME280;15375;48.540;9.268;2022-12-15T01:42:31;96081.66;;;-1.79;100.00
4814;BME280;15375;48.540;9.268;2022-12-15T01:47:48;96095.44;;;-1.73;100.00
4814;BME280;15375;48.540;9.268;2022-12-15T01:50:14;96101.28;;;-1.61;100.00
4814;BME280;15375;48.540;9.268;2022-12-15T01:52:41;96117.75;;;-1.55;100.00
4814;BME280;15375;48.540;9.268;2022-12-15T01:55:07;96102.78;;;-1.63;100.00
4814;BME280;15375;48.540;9.268;2022-12-15T01:57:33;96135.03;;;-1.46;100.00
4814;BME280;15375;48.540;9.268;2022-12-15T02:00:03;96123.09;;;-1.59;100.00
4814;BME280;15375;48.540;9.268;2022-12-15T02:02:29;96116.41;;;-1.75;100.00
4814;BME280;15375;48.540;9.268;2022-12-15T02:04:57;96152.50;;;-1.55;100.00
4814;BME280;15375;48.540;9.268;2022-12-15T02:07:23;96149.00;;;-1.63;100.00
4814;BME280;15375;48.540;9.268;2022-12-15T02:09:51;96092.56;;;-1.95;100.00
4814;BME280;15375;48.540;9.268;2022-12-15T02:15:23;96145.94;;;-1.65;100.00
4814;BME280;15375;48.540;9.268;2022-12-15T02:18:11;96116.72;;;-1.84;100.00
4814;BME280;15375;48.540;9.268;2022-12-15T02:31:54;96149.53;;;-1.83;100.00
4814;BME280;15375;48.540;9.268;2022-12-15T02:37:09;96148.28;;;-1.97;100.00
4814;BME280;15375;48.540;9.268;2022-12-15T02:39:35;96145.50;;;-2.04;100.00
4814;BME280;15375;48.540;9.268;2022-12-15T02:42:01;96137.91;;;-2.02;100.00
4814;BME280;15375;48.540;9.268;2022-12-15T02:44:39;96159.88;;;-1.82;100.00
4814;BME280;15375;48.540;9.268;2022-12-15T02:58:07;96166.84;;;-1.74;100.00
4814;BME280;15375;48.540;9.268;2022-12-15T03:00:41;96114.19;;;-2.07;100.00
4814;BME280;15375;48.540;9.268;2022-12-15T03:03:08;96145.69;;;-1.89;100.00
4814;BME280;15375;48.540;9.268;2022-12-15T03:05:34;96149.88;;;-1.88;100.00
4814;BME280;15375;48.540;9.268;2022-12-15T03:07:59;96174.88;;;-1.70;100.00
4814;BME280;15375;48.540;9.268;2022-12-15T03:10:25;96114.19;;;-2.07;100.00
4814;BME280;15375;48.540;9.268;2022-12-15T03:12:51;96174.03;;;-1.78;100.00
4814;BME280;15375;48.540;9.268;2022-12-15T03:15:17;96134.75;;;-2.11;100.00
4814;BME280;15375;48.540;9.268;2022-12-15T03:17:43;96179.72;;;-1.83;100.00
4814;BME280;15375;48.540;9.268;2022-12-15T03:20:09;96177.38;;;-1.88;100.00
4814;BME280;15375;48.540;9.268;2022-12-15T03:22:35;96136.22;;;-2.17;100.00
4814;BME280;15375;48.540;9.268;2022-12-15T03:25:01;96139.69;;;-2.13;100.00
4814;BME280;15375;48.540;9.268;2022-12-15T03:27:26;96132.00;;;-2.18;100.00
4814;BME280;15375;48.540;9.268;2022-12-15T03:29:51;96131.91;;;-2.25;100.00
4814;BME280;15375;48.540;9.268;2022-12-15T03:32:17;96140.66;;;-2.28;100.00
4814;BME280;15375;48.540;9.268;2022-12-15T03:34:42;96171.81;;;-2.06;100.00
4814;BME280;15375;48.540;9.268;2022-12-15T03:37:07;96211.69;;;-1.90;100.00
4814;BME280;15375;48.540;9.268;2022-12-15T03:39:33;96142.28;;;-2.20;100.00
4814;BME280;15375;48.540;9.268;2022-12-15T03:41:58;96177.63;;;-2.00;100.00
4814;BME280;15375;48.540;9.268;2022-12-15T03:44:24;96157.59;;;-2.17;100.00
4814;BME280;15375;48.540;9.268;2022-12-15T03:46:49;96053.75;;;-2.85;100.00
4814;BME280;15375;48.540;9.268;2022-12-15T03:49:14;96122.28;;;-2.33;100.00
4814;BME280;15375;48.540;9.268;2022-12-15T03:51:40;96125.81;;;-2.55;100.00
4814;BME280;15375;48.540;9.268;2022-12-15T03:54:05;96197.75;;;-2.06;100.00
4814;BME280;15375;48.540;9.268;2022-12-15T03:56:31;96188.34;;;-1.97;100.00
4814;BME280;15375;48.540;9.268;2022-12-15T03:58:57;96195.09;;;-2.06;100.00
4814;BME280;15375;48.540;9.268;2022-12-15T04:03:52;96086.81;;;-2.93;100.00
4814;BME280;15375;48.540;9.268;2022-12-15T04:06:17;96127.66;;;-2.59;100.00
4814;BME280;15375;48.540;9.268;2022-12-15T04:08:43;96208.81;;;-2.08;100.00
4814;BME280;15375;48.540;9.268;2022-12-15T04:11:08;96113.88;;;-2.65;100.00
4814;BME280;15375;48.540;9.268;2022-12-15T04:13:34;96182.66;;;-2.25;100.00
4814;BME280;15375;48.540;9.268;2022-12-15T04:16:03;96184.16;;;-2.24;100.00
4814;BME280;15375;48.540;9.268;2022-12-15T04:18:29;96163.19;;;-2.25;100.00
4814;BME280;15375;48.540;9.268;2022-12-15T04:20:55;96205.75;;;-2.10;100.00
4814;BME280;15375;48.540;9.268;2022-12-15T04:23:20;96209.28;;;-2.02;100.00
4814;BME280;15375;48.540;9.268;2022-12-15T04:25:46;96189.72;;;-2.10;100.00
4814;BME280;15375;48.540;9.268;2022-12-15T04:28:30;96180.44;;;-2.19;100.00
4814;BME280;15375;48.540;9.268;2022-12-15T04:31:17;96202.03;;;-2.02;100.00
4814;BME280;15375;48.540;9.268;2022-12-15T04:34:05;96216.00;;;-1.82;100.00
4814;BME280;15375;48.540;9.268;2022-12-15T04:36:51;96214.44;;;-1.83;100.00
4814;BME280;15375;48.540;9.268;2022-12-15T04:39:37;96182.91;;;-2.04;100.00
4814;BME280;15375;48.540;9.268;2022-12-15T04:42:22;96197.50;;;-1.98;100.00
4814;BME280;15375;48.540;9.268;2022-12-15T04:45:08;96198.53;;;-2.06;100.00
4814;BME280;15375;48.540;9.268;2022-12-15T04:47:52;96193.97;;;-2.05;100.00
4814;BME280;15375;48.540;9.268;2022-12-15T04:50:36;96218.13;;;-1.95;100.00
4814;BME280;15375;48.540;9.268;2022-12-15T04:53:20;96207.84;;;-1.92;100.00
4814;BME280;15375;48.540;9.268;2022-12-15T04:56:09;96225.53;;;-1.81;100.00
4814;BME280;15375;48.540;9.268;2022-12-15T04:58:53;96208.97;;;-1.94;100.00
4814;BME280;15375;48.540;9.268;2022-12-15T05:01:37;96206.59;;;-2.02;100.00
4814;BME280;15375;48.540;9.268;2022-12-15T05:04:21;96191.69;;;-2.03;100.00
4814;BME280;15375;48.540;9.268;2022-12-15T05:07:05;96208.50;;;-2.03;100.00
4814;BME280;15375;48.540;9.268;2022-12-15T05:09:48;96195.09;;;-2.06;100.00
4814;BME280;15375;48.540;9.268;2022-12-15T05:12:32;96189.88;;;-2.25;100.00
4814;BME280;15375;48.540;9.268;2022-12-15T05:15:16;96227.25;;;-1.99;100.00
4814;BME280;15375;48.540;9.268;2022-12-15T05:18:00;96224.94;;;-2.01;100.00
4814;BME280;15375;48.540;9.268;2022-12-15T05:20:44;96186.84;;;-2.24;100.00
4814;BME280;15375;48.540;9.268;2022-12-15T05:23:28;96192.31;;;-2.17;100.00
4814;BME280;15375;48.540;9.268;2022-12-15T05:26:12;96228.13;;;-1.88;100.00
4814;BME280;15375;48.540;9.268;2022-12-15T05:28:56;96200.41;;;-2.10;100.00
4814;BME280;15375;48.540;9.268;2022-12-15T05:31:43;96251.09;;;-1.83;100.00
4814;BME280;15375;48.540;9.268;2022-12-15T05:34:22;96256.94;;;-1.74;100.00
4814;BME280;15375;48.540;9.268;2022-12-15T05:36:49;96235.25;;;-1.99;100.00
4814;BME280;15375;48.540;9.268;2022-12-15T05:39:14;96224.97;;;-1.97;100.00
4814;BME280;15375;48.540;9.268;2022-12-15T05:41:40;96235.69;;;-1.94;100.00
4814;BME280;15375;48.540;9.268;2022-12-15T05:44:06;96149.94;;;-2.48;100.00
4814;BME280;15375;48.540;9.268;2022-12-15T05:46:31;96193.47;;;-2.14;100.00
4814;BME280;15375;48.540;9.268;2022-12-15T05:48:57;96203.47;;;-2.08;100.00
4814;BME280;15375;48.540;9.268;2022-12-15T05:51:25;96189.63;;;-2.17;100.00
4814;BME280;15375;48.540;9.268;2022-12-15T05:53:50;96172.63;;;-2.31;100.00
4814;BME280;15375;48.540;9.268;2022-12-15T05:56:16;96165.63;;;-2.43;100.00
4814;BME280;15375;48.540;9.268;2022-12-15T05:58:41;96099.38;;;-2.93;100.00
4814;BME280;15375;48.540;9.268;2022-12-15T06:01:08;96249.66;;;-1.77;100.00
4814;BME280;15375;48.540;9.268;2022-12-15T06:03:34;96221.16;;;-1.96;100.00
4814;BME280;15375;48.540;9.268;2022-12-15T06:06:00;96249.88;;;-1.89;100.00
4814;BME280;15375;48.540;9.268;2022-12-15T06:08:28;96174.41;;;-2.42;100.00
4814;BME280;15375;48.540;9.268;2022-12-15T06:10:55;96175.38;;;-2.54;100.00
4814;BME280;15375;48.540;9.268;2022-12-15T06:13:22;96180.84;;;-2.47;100.00
4814;BME280;15375;48.540;9.268;2022-12-15T06:15:58;96239.63;;;-2.14;100.00
4814;BME280;15375;48.540;9.268;2022-12-15T06:18:27;96263.16;;;-1.97;100.00
4814;BME280;15375;48.540;9.268;2022-12-15T06:20:57;96272.47;;;-1.83;100.00
4814;BME280;15375;48.540;9.268;2022-12-15T06:23:23;96278.66;;;-1.79;100.00
4814;BME280;15375;48.540;9.268;2022-12-15T06:25:50;96229.78;;;-2.10;100.00
4814;BME280;15375;48.540;9.268;2022-12-15T06:28:15;96177.03;;;-2.46;100.00
4814;BME280;15375;48.540;9.268;2022-12-15T06:30:42;96243.38;;;-2.18;100.00
4814;BME280;15375;48.540;9.268;2022-12-15T06:33:08;96210.44;;;-2.29;100.00
4814;BME280;15375;48.540;9.268;2022-12-15T06:35:36;96228.53;;;-2.16;100.00
4814;BME280;15375;48.540;9.268;2022-12-15T06:38:02;96158.94;;;-2.60;100.00
4814;BME280;15375;48.540;9.268;2022-12-15T06:40:28;96242.50;;;-2.00;100.00
4814;BME280;15375;48.540;9.268;2022-12-15T06:42:56;96200.16;;;-2.27;100.00
4814;BME280;15375;48.540;9.268;2022-12-15T06:45:21;96219.31;;;-2.22;100.00
4814;BME280;15375;48.540;9.268;2022-12-15T06:47:47;96216.19;;;-2.27;100.00
4814;BME280;15375;48.540;9.268;2022-12-15T06:50:13;96232.38;;;-2.17;100.00
4814;BME280;15375;48.540;9.268;2022-12-15T06:52:38;96215.56;;;-2.17;100.00
4814;BME280;15375;48.540;9.268;2022-12-15T06:55:04;96240.94;;;-2.01;100.00
4814;BME280;15375;48.540;9.268;2022-12-15T06:57:29;96193.25;;;-2.32;100.00
4814;BME280;15375;48.540;9.268;2022-12-15T06:59:55;96234.44;;;-2.03;100.00
4814;BME280;15375;48.540;9.268;2022-12-15T07:02:20;96219.19;;;-2.03;100.00
4814;BME280;15375;48.540;9.268;2022-12-15T07:04:45;96230.31;;;-1.97;100.00
4814;BME280;15375;48.540;9.268;2022-12-15T07:07:11;96209.94;;;-2.09;100.00
4814;BME280;15375;48.540;9.268;2022-12-15T07:09:36;96239.19;;;-1.89;100.00
4814;BME280;15375;48.540;9.268;2022-12-15T07:12:02;96218.72;;;-2.08;100.00
4814;BME280;15375;48.540;9.268;2022-12-15T07:14:27;96203.00;;;-2.13;100.00
4814;BME280;15375;48.540;9.268;2022-12-15T07:16:53;96262.25;;;-1.78;100.00
4814;BME280;15375;48.540;9.268;2022-12-15T07:19:18;96174.72;;;-2.18;100.00
4814;BME280;15375;48.540;9.268;2022-12-15T07:21:43;96230.50;;;-1.83;100.00
4814;BME280;15375;48.540;9.268;2022-12-15T07:24:12;96274.31;;;-1.58;100.00
4814;BME280;15375;48.540;9.268;2022-12-15T07:26:38;96222.72;;;-1.95;100.00
4814;BME280;15375;48.540;9.268;2022-12-15T07:29:04;96255.41;;;-1.75;100.00
4814;BME280;15375;48.540;9.268;2022-12-15T07:31:30;96274.56;;;-1.70;100.00
4814;BME280;15375;48.540;9.268;2022-12-15T07:33:57;96191.84;;;-2.22;100.00
4814;BME280;15375;48.540;9.268;2022-12-15T07:36:23;96264.19;;;-1.75;100.00
4814;BME280;15375;48.540;9.268;2022-12-15T07:38:48;96278.09;;;-1.62;100.00
4814;BME280;15375;48.540;9.268;2022-12-15T07:41:14;96268.72;;;-1.79;100.00
4814;BME280;15375;48.540;9.268;2022-12-15T07:43:39;96271.47;;;-1.72;100.00
4814;BME280;15375;48.540;9.268;2022-12-15T07:46:05;96274.88;;;-1.75;100.00
4814;BME280;15375;48.540;9.268;2022-12-15T07:48:31;96213.38;;;-2.08;100.00
4814;BME280;15375;48.540;9.268;2022-12-15T07:50:57;96276.28;;;-1.55;100.00
4814;BME280;15375;48.540;9.268;2022-12-15T07:53:25;96290.63;;;-1.33;100.00
4814;BME280;15375;48.540;9.268;2022-12-15T07:55:53;96301.53;;;-1.15;100.00
4814;BME280;15375;48.540;9.268;2022-12-15T07:58:25;96206.84;;;-1.81;100.00
4814;BME280;15375;48.540;9.268;2022-12-15T08:01:01;96276.75;;;-1.46;100.00
4814;BME280;15375;48.540;9.268;2022-12-15T08:03:28;96298.19;;;-1.42;100.00
4814;BME280;15375;48.540;9.268;2022-12-15T08:05:53;96239.72;;;-1.77;100.00
4814;BME280;15375;48.540;9.268;2022-12-15T08:08:19;96309.88;;;-1.24;100.00
4814;BME280;15375;48.540;9.268;2022-12-15T08:10:45;96309.22;;;-1.14;100.00
4814;BME280;15375;48.540;9.268;2022-12-15T08:13:12;96262.13;;;-1.55;100.00
4814;BME280;15375;48.540;9.268;2022-12-15T08:15:37;96303.88;;;-1.14;100.00
4814;BME280;15375;48.540;9.268;2022-12-15T08:18:03;96302.16;;;-0.96;100.00
4814;BME280;15375;48.540;9.268;2022-12-15T08:20:29;96253.94;;;-1.36;100.00
4814;BME280;15375;48.540;9.268;2022-12-15T08:22:55;96334.59;;;-0.97;100.00
4814;BME280;15375;48.540;9.268;2022-12-15T08:25:21;96337.25;;;-1.01;100.00
4814;BME280;15375;48.540;9.268;2022-12-15T08:27:49;96322.59;;;-1.14;100.00
4814;BME280;15375;48.540;9.268;2022-12-15T08:30:15;96242.63;;;-1.56;100.00
4814;BME280;15375;48.540;9.268;2022-12-15T08:32:40;96287.81;;;-1.14;100.00
4814;BME280;15375;48.540;9.268;2022-12-15T08:35:06;96314.53;;;-0.81;100.00
4814;BME280;15375;48.540;9.268;2022-12-15T08:37:33;96321.84;;;-0.74;100.00
4814;BME280;15375;48.540;9.268;2022-12-15T08:39:58;96312.69;;;-0.70;100.00
4814;BME280;15375;48.540;9.268;2022-12-15T08:42:23;96334.00;;;-0.43;100.00
4814;BME280;15375;48.540;9.268;2022-12-15T08:44:49;96284.38;;;-0.74;100.00
4814;BME280;15375;48.540;9.268;2022-12-15T08:47:14;96324.34;;;-0.51;100.00
4814;BME280;15375;48.540;9.268;2022-12-15T08:49:39;96317.69;;;-0.68;100.00
4814;BME280;15375;48.540;9.268;2022-12-15T08:52:05;96305.75;;;-0.78;100.00
4814;BME280;15375;48.540;9.268;2022-12-15T08:54:30;96284.66;;;-0.83;100.00
4814;BME280;15375;48.540;9.268;2022-12-15T08:56:56;96317.78;;;-0.57;100.00
4814;BME280;15375;48.540;9.268;2022-12-15T08:59:22;96318.38;;;-0.75;100.00
4814;BME280;15375;48.540;9.268;2022-12-15T09:01:47;96290.84;;;-0.79;100.00
4814;BME280;15375;48.540;9.268;2022-12-15T09:04:13;96302.88;;;-0.55;100.00
4814;BME280;15375;48.540;9.268;2022-12-15T09:06:39;96224.06;;;-1.05;100.00
4814;BME280;15375;48.540;9.268;2022-12-15T09:09:06;96216.84;;;-1.01;100.00
4814;BME280;15375;48.540;9.268;2022-12-15T09:11:32;96311.56;;;-0.21;100.00
4814;BME280;15375;48.540;9.268;2022-12-15T09:13:58;96278.25;;;-0.24;100.00
4814;BME280;15375;48.540;9.268;2022-12-15T09:16:23;96283.50;;;0.24;100.00
4814;BME280;15375;48.540;9.268;2022-12-15T09:18:51;96290.91;;;0.48;100.00
4814;BME280;15375;48.540;9.268;2022-12-15T09:21:17;96282.06;;;0.40;100.00
4814;BME280;15375;48.540;9.268;2022-12-15T09:23:47;96322.63;;;0.35;100.00
4814;BME280;15375;48.540;9.268;2022-12-15T09:26:14;96318.75;;;0.26;100.00
4814;BME280;15375;48.540;9.268;2022-12-15T09:28:40;96283.03;;;0.04;100.00
4814;BME280;15375;48.540;9.268;2022-12-15T09:31:12;96300.59;;;-0.02;100.00
4814;BME280;15375;48.540;9.268;2022-12-15T09:33:38;96259.81;;;-0.32;100.00
4814;BME280;15375;48.540;9.268;2022-12-15T09:36:04;96334.03;;;0.18;100.00
4814;BME280;15375;48.540;9.268;2022-12-15T09:38:33;96320.13;;;-0.02;100.00
4814;BME280;15375;48.540;9.268;2022-12-15T09:41:07;96334.84;;;0.22;100.00
4814;BME280;15375;48.540;9.268;2022-12-15T09:43:33;96319.88;;;0.21;100.00
4814;BME280;15375;48.540;9.268;2022-12-15T09:49:09;96293.47;;;0.20;100.00
4814;BME280;15375;48.540;9.268;2022-12-15T09:51:40;96307.56;;;0.13;100.00
4814;BME280;15375;48.540;9.268;2022-12-15T09:54:10;96293.19;;;-0.23;100.00
4814;BME280;15375;48.540;9.268;2022-12-15T09:56:41;96274.75;;;-0.31;100.00
4814;BME280;15375;48.540;9.268;2022-12-15T10:04:59;96322.84;;;0.02;100.00
4814;BME280;15375;48.540;9.268;2022-12-15T10:07:35;96325.91;;;0.04;100.00
4814;BME280;15375;48.540;9.268;2022-12-15T10:10:24;96287.50;;;-0.18;100.00
4814;BME280;15375;48.540;9.268;2022-12-15T10:12:55;96269.44;;;-0.24;100.00
4814;BME280;15375;48.540;9.268;2022-12-15T10:15:25;96287.50;;;-0.14;100.00
4814;BME280;15375;48.540;9.268;2022-12-15T10:20:27;96295.06;;;-0.30;100.00
4814;BME280;15375;48.540;9.268;2022-12-15T10:23:20;96314.72;;;-0.09;100.00
4814;BME280;15375;48.540;9.268;2022-12-15T10:26:30;96299.34;;;-0.19;100.00
4814;BME280;15375;48.540;9.268;2022-12-15T10:31:58;96295.75;;;-0.40;100.00
4814;BME280;15375;48.540;9.268;2022-12-15T10:34:27;96319.19;;;-0.27;100.00
4814;BME280;15375;48.540;9.268;2022-12-15T10:36:57;96303.94;;;-0.19;100.00
4814;BME280;15375;48.540;9.268;2022-12-15T10:39:28;96246.25;;;-0.60;100.00
4814;BME280;15375;48.540;9.268;2022-12-15T10:42:21;96282.06;;;-0.28;100.00
4814;BME280;15375;48.540;9.268;2022-12-15T10:44:56;96252.41;;;-0.53;100.00
4814;BME280;15375;48.540;9.268;2022-12-15T10:47:24;96280.56;;;-0.22;100.00
4814;BME280;15375;48.540;9.268;2022-12-15T10:49:51;96281.00;;;-0.13;100.00
4814;BME280;15375;48.540;9.268;2022-12-15T10:52:36;96251.88;;;-0.18;100.00
4814;BME280;15375;48.540;9.268;2022-12-15T10:55:54;96291.06;;;0.08;100.00
4814;BME280;15375;48.540;9.268;2022-12-15T10:58:00;96249.34;;;0.10;100.00
4814;BME280;15375;48.540;9.268;2022-12-15T11:00:29;96259.72;;;0.15;100.00
4814;BME280;15375;48.540;9.268;2022-12-15T11:02:54;96292.72;;;0.26;100.00
4814;BME280;15375;48.540;9.268;2022-12-15T11:05:25;96240.44;;;-0.15;100.00
4814;BME280;15375;48.540;9.268;2022-12-15T11:07:58;96300.78;;;0.33;100.00
4814;BME280;15375;48.540;9.268;2022-12-15T11:10:48;96219.03;;;-0.08;100.00
4814;BME280;15375;48.540;9.268;2022-12-15T11:13:33;96278.97;;;0.35;100.00
4814;BME280;15375;48.540;9.268;2022-12-15T11:16:09;96284.72;;;0.40;100.00
4814;BME280;15375;48.540;9.268;2022-12-15T11:21:16;96252.16;;;0.35;100.00
4814;BME280;15375;48.540;9.268;2022-12-15T11:27:08;96266.03;;;0.54;100.00
4814;BME280;15375;48.540;9.268;2022-12-15T11:32:01;96238.13;;;0.84;100.00
4814;BME280;15375;48.540;9.268;2022-12-15T11:34:40;96238.53;;;1.00;100.00
4814;BME280;15375;48.540;9.268;2022-12-15T11:43:08;96218.25;;;1.13;100.00
4814;BME280;15375;48.540;9.268;2022-12-15T11:46:00;96198.63;;;0.91;100.00
4814;BME280;15375;48.540;9.268;2022-12-15T11:48:36;96142.63;;;0.47;100.00
4814;BME280;15375;48.540;9.268;2022-12-15T11:51:10;96135.69;;;0.32;100.00
4814;BME280;15375;48.540;9.268;2022-12-15T11:56:32;96193.97;;;0.49;100.00
4814;BME280;15375;48.540;9.268;2022-12-15T11:59:30;96190.91;;;0.47;100.00
4814;BME280;15375;48.540;9.268;2022-12-15T12:07:39;96194.75;;;0.60;100.00
4814;BME280;15375;48.540;9.268;2022-12-15T12:10:40;96192.84;;;0.64;100.00
4814;BME280;15375;48.540;9.268;2022-12-15T12:13:33;96174.06;;;0.61;100.00
4814;BME280;15375;48.540;9.268;2022-12-15T12:16:09;96177.91;;;0.67;100.00
4814;BME280;15375;48.540;9.268;2022-12-15T12:18:44;96146.81;;;0.41;100.00
4814;BME280;15375;48.540;9.268;2022-12-15T12:21:18;96143.41;;;0.65;100.00
4814;BME280;15375;48.540;9.268;2022-12-15T12:24:03;96118.84;;;0.46;100.00
4814;BME280;15375;48.540;9.268;2022-12-15T12:26:55;96133.03;;;0.60;100.00
4814;BME280;15375;48.540;9.268;2022-12-15T12:32:17;96159.91;;;0.68;100.00
4814;BME280;15375;48.540;9.268;2022-12-15T12:37:30;96167.91;;;0.60;100.00
4814;BME280;15375;48.540;9.268;2022-12-15T12:40:05;96161.00;;;0.45;100.00
4814;BME280;15375;48.540;9.268;2022-12-15T12:42:40;96135.66;;;0.22;100.00
4814;BME280;15375;48.540;9.268;2022-12-15T12:45:11;96117.25;;;0.13;100.00
4814;BME280;15375;48.540;9.268;2022-12-15T12:47:41;96123.00;;;0.15;100.00
4814;BME280;15375;48.540;9.268;2022-12-15T12:52:37;96140.97;;;0.08;100.00
4814;BME280;15375;48.540;9.268;2022-12-15T12:55:03;96180.88;;;0.30;100.00
4814;BME280;15375;48.540;9.268;2022-12-15T12:57:40;96182.78;;;0.26;100.00
4814;BME280;15375;48.540;9.268;2022-12-15T13:16:05;96131.03;;;0.15;100.00
4814;BME280;15375;48.540;9.268;2022-12-15T13:19:12;96124.16;;;0.14;100.00
4814;BME280;15375;48.540;9.268;2022-12-15T13:26:44;96089.63;;;-0.02;100.00
4814;BME280;15375;48.540;9.268;2022-12-15T13:29:13;96096.59;;;0.17;100.00
4814;BME280;15375;48.540;9.268;2022-12-15T13:31:45;96074.31;;;-0.01;100.00
4814;BME280;15375;48.540;9.268;2022-12-15T13:34:14;96079.69;;;0.03;100.00
4814;BME280;15375;48.540;9.268;2022-12-15T13:44:34;96108.09;;;0.28;100.00
4814;BME280;15375;48.540;9.268;2022-12-15T13:47:27;96112.69;;;0.28;100.00
4814;BME280;15375;48.540;9.268;2022-12-15T13:50:11;96081.25;;;0.14;100.00
4814;BME280;15375;48.540;9.268;2022-12-15T13:52:48;96098.16;;;0.39;100.00
4814;BME280;15375;48.540;9.268;2022-12-15T13:55:21;96072.47;;;0.28;100.00
4814;BME280;15375;48.540;9.268;2022-12-15T13:58:01;96070.97;;;0.37;100.00
4814;BME280;15375;48.540;9.268;2022-12-15T14:00:28;96076.69;;;0.36;100.00
4814;BME280;15375;48.540;9.268;2022-12-15T14:03:04;96062.88;;;0.30;100.00
4814;BME280;15375;48.540;9.268;2022-12-15T14:05:33;96026.88;;;0.14;100.00
4814;BME280;15375;48.540;9.268;2022-12-15T14:07:59;96070.59;;;0.49;100.00
4814;BME280;15375;48.540;9.268;2022-12-15T14:12:53;96000.84;;;0.07;100.00
4814;BME280;15375;48.540;9.268;2022-12-15T14:15:27;96062.16;;;0.37;100.00
4814;BME280;15375;48.540;9.268;2022-12-15T14:17:54;96068.25;;;0.34;100.00
4814;BME280;15375;48.540;9.268;2022-12-15T14:20:26;96074.78;;;0.43;100.00
4814;BME280;15375;48.540;9.268;2022-12-15T14:22:52;96047.56;;;0.24;100.00
4814;BME280;15375;48.540;9.268;2022-12-15T14:25:24;96067.88;;;0.35;100.00
4814;BME280;15375;48.540;9.268;2022-12-15T14:27:50;96063.28;;;0.29;100.00
4814;BME280;15375;48.540;9.268;2022-12-15T14:30:29;96065.19;;;0.32;100.00
4814;BME280;15375;48.540;9.268;2022-12-15T14:33:01;96042.56;;;0.08;100.00
4814;BME280;15375;48.540;9.268;2022-12-15T14:35:43;96055.97;;;0.05;100.00
4814;BME280;15375;48.540;9.268;2022-12-15T14:38:15;96075.16;;;0.17;100.00
4814;BME280;15375;48.540;9.268;2022-12-15T14:40:43;96064.75;;;0.02;100.00
4814;BME280;15375;48.540;9.268;2022-12-15T14:43:19;96041.34;;;-0.19;100.00
4814;BME280;15375;48.540;9.268;2022-12-15T14:45:52;96016.81;;;-0.32;100.00
4814;BME280;15375;48.540;9.268;2022-12-15T14:48:28;96022.22;;;-0.21;100.00
4814;BME280;15375;48.540;9.268;2022-12-15T14:50:59;96049.81;;;-0.03;100.00
4814;BME280;15375;48.540;9.268;2022-12-15T14:53:32;96052.88;;;-0.01;100.00
4814;BME280;15375;48.540;9.268;2022-12-15T14:58:56;96072.78;;;-0.02;100.00
4814;BME280;15375;48.540;9.268;2022-12-15T15:01:39;96062.84;;;-0.05;100.00
4814;BME280;15375;48.540;9.268;2022-12-15T15:04:52;96035.22;;;-0.30;100.00
4814;BME280;15375;48.540;9.268;2022-12-15T15:06:59;96074.31;;;-0.08;100.00
4814;BME280;15375;48.540;9.268;2022-12-15T15:09:28;96047.06;;;-0.24;100.00
4814;BME280;15375;48.540;9.268;2022-12-15T15:12:05;96068.97;;;-0.08;100.00
4814;BME280;15375;48.540;9.268;2022-12-15T15:20:13;96058.19;;;-0.26;100.00
4814;BME280;15375;48.540;9.268;2022-12-15T15:22:43;96080.78;;;-0.23;100.00
4814;BME280;15375;48.540;9.268;2022-12-15T15:30:59;96083.44;;;-0.27;100.00
4814;BME280;15375;48.540;9.268;2022-12-15T15:33:30;96059.63;;;-0.49;100.00